sensor_id;sensor_type;location;lat;lon;timestamp;pressure;altitude;pressure_sealevel;temperature;humidity
67697;BME280;54486;51.442;6.778;2023-01-26T00:01:36;102405.75;;;-0.68;93.37
67697;BME280;54486;51.442;6.778;2023-01-26T00:04:03;102398.84;;;-0.69;93.59
67697;BME280;54486;51.442;6.778;2023-01-26T00:06:31;102392.41;;;-0.62;93.63
67697;BME280;54486;51.442;6.778;2023-01-26T00:09:01;102381.00;;;-0.67;93.67
67697;BME280;54486;51.442;6.778;2023-01-26T00:11:28;102378.81;;;-0.61;93.88
67697;BME280;54486;51.442;6.778;2023-01-26T00:13:57;102380.88;;;-0.56;93.71
67697;BME280;54486;51.442;6.778;2023-01-26T00:16:26;102373.78;;;-0.60;93.94
67697;BME280;54486;51.442;6.778;2023-01-26T00:18:54;102370.44;;;-0.59;94.03
67697;BME280;54486;51.442;6.778;2023-01-26T00:21:21;102378.72;;;-0.63;94.00
67697;BME280;54486;51.442;6.778;2023-01-26T00:23:49;102368.06;;;-0.69;94.25
67697;BME280;54486;51.442;6.778;2023-01-26T00:26:17;102363.34;;;-0.63;94.31
67697;BME280;54486;51.442;6.778;2023-01-26T00:28:44;102367.88;;;-0.72;93.98
67697;BME280;54486;51.442;6.778;2023-01-26T00:31:16;102369.66;;;-0.71;94.64
67697;BME280;54486;51.442;6.778;2023-01-26T00:33:43;102376.72;;;-0.67;94.72
67697;BME280;54486;51.442;6.778;2023-01-26T00:36:10;102368.44;;;-0.63;94.68
67697;BME280;54486;51.442;6.778;2023-01-26T00:38:38;102366.78;;;-0.62;95.11
67697;BME280;54486;51.442;6.778;2023-01-26T00:41:05;102362.75;;;-0.59;94.90
67697;BME280;54486;51.442;6.778;2023-01-26T00:43:32;102356.84;;;-0.58;95.20
67697;BME280;54486;51.442;6.778;2023-01-26T00:45:59;102353.28;;;-0.60;95.19
67697;BME280;54486;51.442;6.778;2023-01-26T00:48:26;102355.25;;;-0.56;95.30
67697;BME280;54486;51.442;6.778;2023-01-26T00:50:53;102349.63;;;-0.63;95.10
67697;BME280;54486;51.442;6.778;2023-01-26T00:53:19;102347.56;;;-0.69;95.47
67697;BME280;54486;51.442;6.778;2023-01-26T00:55:46;102346.59;;;-0.71;95.86
67697;BME280;54486;51.442;6.778;2023-01-26T00:58:13;102340.84;;;-0.67;95.88
67697;BME280;54486;51.442;6.778;2023-01-26T01:00:40;102344.41;;;-0.65;96.26
67697;BME280;54486;51.442;6.778;2023-01-26T01:03:07;102343.91;;;-0.59;96.60
67697;BME280;54486;51.442;6.778;2023-01-26T01:05:34;102343.59;;;-0.50;96.71
67697;BME280;54486;51.442;6.778;2023-01-26T01:08:01;102341.38;;;-0.44;97.04
67697;BME280;54486;51.442;6.778;2023-01-26T01:10:28;102344.66;;;-0.47;97.00
67697;BME280;54486;51.442;6.778;2023-01-26T01:12:55;102349.22;;;-0.56;97.07
67697;BME280;54486;51.442;6.778;2023-01-26T01:15:23;102335.09;;;-0.49;96.99
67697;BME280;54486;51.442;6.778;2023-01-26T01:17:50;102332.66;;;-0.48;97.27
67697;BME280;54486;51.442;6.778;2023-01-26T01:20:17;102334.03;;;-0.53;97.31
67697;BME280;54486;51.442;6.778;2023-01-26T01:22:45;102328.19;;;-0.50;97.38
67697;BME280;54486;51.442;6.778;2023-01-26T01:25:12;102329.22;;;-0.62;96.99
67697;BME280;54486;51.442;6.778;2023-01-26T01:27:39;102327.25;;;-0.66;97.61
67697;BME280;54486;51.442;6.778;2023-01-26T01:30:06;102323.72;;;-0.68;98.15
67697;BME280;54486;51.442;6.778;2023-01-26T01:32:34;102325.28;;;-0.70;98.17
67697;BME280;54486;51.442;6.778;2023-01-26T01:35:02;102329.31;;;-0.73;98.16
67697;BME280;54486;51.442;6.778;2023-01-26T01:37:29;102329.75;;;-0.67;98.51
67697;BME280;54486;51.442;6.778;2023-01-26T01:39:56;102325.47;;;-0.67;98.39
67697;BME280;54486;51.442;6.778;2023-01-26T01:42:23;102327.44;;;-0.63;98.53
67697;BME280;54486;51.442;6.778;2023-01-26T01:47:36;102329.03;;;-0.65;98.68
67697;BME280;54486;51.442;6.778;2023-01-26T01:50:03;102327.25;;;-0.66;98.52
67697;BME280;54486;51.442;6.778;2023-01-26T01:52:30;102330.78;;;-0.64;98.80
67697;BME280;54486;51.442;6.778;2023-01-26T01:54:59;102317.56;;;-0.57;98.91
67697;BME280;54486;51.442;6.778;2023-01-26T01:57:33;102318.84;;;-0.50;99.50
67697;BME280;54486;51.442;6.778;2023-01-26T02:00:14;102314.97;;;-0.43;99.29
67697;BME280;54486;51.442;6.778;2023-01-26T02:02:42;102308.16;;;-0.43;99.39
67697;BME280;54486;51.442;6.778;2023-01-26T02:05:16;102310.22;;;-0.37;99.18
67697;BME280;54486;51.442;6.778;2023-01-26T02:07:46;102315.25;;;-0.39;98.99
67697;BME280;54486;51.442;6.778;2023-01-26T02:10:17;102305.59;;;-0.43;98.75
67697;BME280;54486;51.442;6.778;2023-01-26T02:12:49;102303.97;;;-0.56;99.12
67697;BME280;54486;51.442;6.778;2023-01-26T02:15:17;102295.50;;;-0.55;99.43
67697;BME280;54486;51.442;6.778;2023-01-26T02:17:44;102294.09;;;-0.49;99.63
67697;BME280;54486;51.442;6.778;2023-01-26T02:20:25;102297.81;;;-0.44;99.53
67697;BME280;54486;51.442;6.778;2023-01-26T02:23:30;102295.44;;;-0.41;99.31
67697;BME280;54486;51.442;6.778;2023-01-26T02:28:19;102287.38;;;-0.47;99.32
67697;BME280;54486;51.442;6.778;2023-01-26T02:30:47;102291.63;;;-0.48;99.77
67697;BME280;54486;51.442;6.778;2023-01-26T02:33:18;102279.41;;;-0.52;99.98
67697;BME280;54486;51.442;6.778;2023-01-26T02:35:45;102288.00;;;-0.51;99.77
67697;BME280;54486;51.442;6.778;2023-01-26T02:38:12;102296.53;;;-0.51;99.78
67697;BME280;54486;51.442;6.778;2023-01-26T02:43:09;102299.53;;;-0.58;99.78
67697;BME280;54486;51.442;6.778;2023-01-26T02:45:37;102295.31;;;-0.58;99.86
67697;BME280;54486;51.442;6.778;2023-01-26T02:48:05;102290.59;;;-0.65;99.78
67697;BME280;54486;51.442;6.778;2023-01-26T02:50:34;102292.59;;;-0.74;99.63
67697;BME280;54486;51.442;6.778;2023-01-26T02:53:03;102285.69;;;-0.75;100.00
67697;BME280;54486;51.442;6.778;2023-01-26T02:55:30;102282.97;;;-0.63;100.00
67697;BME280;54486;51.442;6.778;2023-01-26T02:58:01;102268.09;;;-0.56;100.00
67697;BME280;54486;51.442;6.778;2023-01-26T03:00:33;102269.03;;;-0.54;99.82
67697;BME280;54486;51.442;6.778;2023-01-26T03:03:07;102264.91;;;-0.51;99.67
67697;BME280;54486;51.442;6.778;2023-01-26T03:05:37;102257.66;;;-0.59;99.73
67697;BME280;54486;51.442;6.778;2023-01-26T03:08:04;102264.91;;;-0.51;99.41
67697;BME280;54486;51.442;6.778;2023-01-26T03:10:32;102277.63;;;-0.53;99.92
67697;BME280;54486;51.442;6.778;2023-01-26T03:13:00;102277.09;;;-0.47;99.53
67697;BME280;54486;51.442;6.778;2023-01-26T03:15:26;102267.31;;;-0.40;99.45
67697;BME280;54486;51.442;6.778;2023-01-26T03:18:13;102267.97;;;-0.57;99.49
67697;BME280;54486;51.442;6.778;2023-01-26T03:21:00;102260.81;;;-0.63;100.00
67697;BME280;54486;51.442;6.778;2023-01-26T03:23:46;102263.31;;;-0.49;99.93
67697;BME280;54486;51.442;6.778;2023-01-26T03:26:32;102266.66;;;-0.50;100.00
67697;BME280;54486;51.442;6.778;2023-01-26T03:29:18;102266.66;;;-0.50;99.64
67697;BME280;54486;51.442;6.778;2023-01-26T03:31:45;102270.03;;;-0.51;99.92
67697;BME280;54486;51.442;6.778;2023-01-26T03:34:13;102266.47;;;-0.54;99.82
67697;BME280;54486;51.442;6.778;2023-01-26T03:36:40;102269.09;;;-0.67;99.68
67697;BME280;54486;51.442;6.778;2023-01-26T03:39:06;102273.53;;;-0.64;100.00
67697;BME280;54486;51.442;6.778;2023-01-26T03:41:33;102268.50;;;-0.63;100.00
67697;BME280;54486;51.442;6.778;2023-01-26T03:44:19;102273.22;;;-0.56;100.00
67697;BME280;54486;51.442;6.778;2023-01-26T03:47:04;102271.63;;;-0.54;100.00
67697;BME280;54486;51.442;6.778;2023-01-26T03:49:50;102268.44;;;-0.49;100.00
67697;BME280;54486;51.442;6.778;2023-01-26T03:52:37;102265.28;;;-0.45;100.00
67697;BME280;54486;51.442;6.778;2023-01-26T03:55:22;102261.41;;;-0.39;100.00
67697;BME280;54486;51.442;6.778;2023-01-26T03:58:08;102256.53;;;-0.34;100.00
67697;BME280;54486;51.442;6.778;2023-01-26T04:00:35;102258.94;;;-0.37;100.00
67697;BME280;54486;51.442;6.778;2023-01-26T04:03:03;102252.22;;;-0.35;100.00
67697;BME280;54486;51.442;6.778;2023-01-26T04:05:49;102244.09;;;-0.28;100.00
67697;BME280;54486;51.442;6.778;2023-01-26T04:08:42;102252.22;;;-0.35;100.00
67697;BME280;54486;51.442;6.778;2023-01-26T04:11:10;102247.88;;;-0.36;100.00
67697;BME280;54486;51.442;6.778;2023-01-26T04:13:36;102243.31;;;-0.27;100.00
67697;BME280;54486;51.442;6.778;2023-01-26T04:16:22;102240.75;;;-0.27;100.00
67697;BME280;54486;51.442;6.778;2023-01-26T04:19:07;102242.53;;;-0.26;100.00
67697;BME280;54486;51.442;6.778;2023-01-26T04:21:53;102245.09;;;-0.26;100.00
67697;BME280;54486;51.442;6.778;2023-01-26T04:24:20;102235.59;;;-0.27;100.00
67697;BME280;54486;51.442;6.778;2023-01-26T04:26:48;102246.16;;;-0.50;100.00
67697;BME280;54486;51.442;6.778;2023-01-26T04:29:15;102238.41;;;-0.52;100.00
67697;BME280;54486;51.442;6.778;2023-01-26T04:31:42;102251.28;;;-0.50;100.00
67697;BME280;54486;51.442;6.778;2023-01-26T04:34:10;102251.84;;;-0.41;100.00
67697;BME280;54486;51.442;6.778;2023-01-26T04:36:39;102253.81;;;-0.37;100.00
67697;BME280;54486;51.442;6.778;2023-01-26T04:39:06;102255.59;;;-0.36;100.00
67697;BME280;54486;51.442;6.778;2023-01-26T04:41:33;102247.47;;;-0.29;100.00
67697;BME280;54486;51.442;6.778;2023-01-26T04:44:00;102241.34;;;-0.31;100.00
67697;BME280;54486;51.442;6.778;2023-01-26T04:46:27;102243.72;;;-0.34;100.00
67697;BME280;54486;51.442;6.778;2023-01-26T04:48:55;102247.66;;;-0.26;100.00
67697;BME280;54486;51.442;6.778;2023-01-26T04:51:22;102242.16;;;-0.32;100.00
67697;BME280;54486;51.442;6.778;2023-01-26T04:53:49;102245.88;;;-0.27;100.00
67697;BME280;54486;51.442;6.778;2023-01-26T04:56:26;102242.69;;;-0.23;100.00
67697;BME280;54486;51.442;6.778;2023-01-26T04:58:54;102250.66;;;-0.19;100.00
67697;BME280;54486;51.442;6.778;2023-01-26T05:01:21;102252.59;;;-0.15;100.00
67697;BME280;54486;51.442;6.778;2023-01-26T05:03:48;102247.84;;;-0.23;100.00
67697;BME280;54486;51.442;6.778;2023-01-26T05:06:15;102252.06;;;-0.24;100.00
67697;BME280;54486;51.442;6.778;2023-01-26T05:08:42;102251.00;;;-0.27;100.00
67697;BME280;54486;51.442;6.778;2023-01-26T05:11:09;102250.28;;;-0.25;100.00
67697;BME280;54486;51.442;6.778;2023-01-26T05:13:37;102244.44;;;-0.22;100.00
67697;BME280;54486;51.442;6.778;2023-01-26T05:16:05;102242.69;;;-0.23;100.00
67697;BME280;54486;51.442;6.778;2023-01-26T05:18:34;102236.69;;;-0.24;100.00
67697;BME280;54486;51.442;6.778;2023-01-26T05:21:00;102239.31;;;-0.22;100.00
67697;BME280;54486;51.442;6.778;2023-01-26T05:23:27;102242.53;;;-0.26;100.00
67697;BME280;54486;51.442;6.778;2023-01-26T05:25:54;102234.00;;;-0.25;100.00
67697;BME280;54486;51.442;6.778;2023-01-26T05:28:20;102249.97;;;-0.16;100.00
67697;BME280;54486;51.442;6.778;2023-01-26T05:30:47;102246.59;;;-0.15;100.00
67697;BME280;54486;51.442;6.778;2023-01-26T05:33:15;102253.50;;;-0.14;100.00
67697;BME280;54486;51.442;6.778;2023-01-26T05:35:42;102243.78;;;-0.05;100.00
67697;BME280;54486;51.442;6.778;2023-01-26T05:38:09;102255.47;;;-0.10;100.00
67697;BME280;54486;51.442;6.778;2023-01-26T05:40:36;102255.41;;;-0.25;100.00
67697;BME280;54486;51.442;6.778;2023-01-26T05:43:03;102252.97;;;-0.23;100.00
67697;BME280;54486;51.442;6.778;2023-01-26T05:45:30;102258.44;;;-0.17;100.00
67697;BME280;54486;51.442;6.778;2023-01-26T05:47:57;102251.91;;;-0.12;100.00
67697;BME280;54486;51.442;6.778;2023-01-26T05:50:24;102256.25;;;-0.11;100.00
67697;BME280;54486;51.442;6.778;2023-01-26T05:52:51;102250.34;;;-0.10;100.00
67697;BME280;54486;51.442;6.778;2023-01-26T05:55:18;102249.88;;;-0.03;100.00
67697;BME280;54486;51.442;6.778;2023-01-26T05:57:45;102249.53;;;0.06;100.00
67697;BME280;54486;51.442;6.778;2023-01-26T06:00:12;102246.25;;;0.08;100.00
67697;BME280;54486;51.442;6.778;2023-01-26T06:02:42;102245.38;;;-0.07;100.00
67697;BME280;54486;51.442;6.778;2023-01-26T06:05:09;102248.91;;;-0.05;100.00
67697;BME280;54486;51.442;6.778;2023-01-26T06:07:36;102257.56;;;-0.03;100.00
67697;BME280;54486;51.442;6.778;2023-01-26T06:10:03;102251.72;;;-0.15;100.00
67697;BME280;54486;51.442;6.778;2023-01-26T06:12:31;102251.28;;;-0.08;100.00
67697;BME280;54486;51.442;6.778;2023-01-26T06:15:01;102247.41;;;-0.02;100.00
67697;BME280;54486;51.442;6.778;2023-01-26T06:17:28;102252.44;;;-0.03;100.00
67697;BME280;54486;51.442;6.778;2023-01-26T06:19:55;102253.59;;;0.02;100.00
67697;BME280;54486;51.442;6.778;2023-01-26T06:22:22;102254.75;;;0.07;100.00
67697;BME280;54486;51.442;6.778;2023-01-26T06:24:49;102259.88;;;0.07;100.00
67697;BME280;54486;51.442;6.778;2023-01-26T06:27:16;102247.69;;;0.03;100.00
67697;BME280;54486;51.442;6.778;2023-01-26T06:29:44;102254.94;;;-0.05;100.00
67697;BME280;54486;51.442;6.778;2023-01-26T06:32:14;102256.16;;;0.02;100.00
67697;BME280;54486;51.442;6.778;2023-01-26T06:34:40;102248.56;;;0.04;100.00
67697;BME280;54486;51.442;6.778;2023-01-26T06:40:01;102258.81;;;0.04;100.00
67697;BME280;54486;51.442;6.778;2023-01-26T06:42:28;102255.47;;;0.05;100.00
67697;BME280;54486;51.442;6.778;2023-01-26T06:44:55;102254.38;;;0.01;100.00
67697;BME280;54486;51.442;6.778;2023-01-26T06:47:24;102272.47;;;0.03;100.00
67697;BME280;54486;51.442;6.778;2023-01-26T06:49:51;102265.91;;;0.08;100.00
67697;BME280;54486;51.442;6.778;2023-01-26T06:52:20;102262.97;;;0.16;100.00
67697;BME280;54486;51.442;6.778;2023-01-26T06:54:48;102263.16;;;0.19;100.00
67697;BME280;54486;51.442;6.778;2023-01-26T06:57:16;102263.78;;;0.15;100.00
67697;BME280;54486;51.442;6.778;2023-01-26T06:59:43;102254.59;;;0.19;100.00
67697;BME280;54486;51.442;6.778;2023-01-26T07:02:15;102258.84;;;0.18;100.00
67697;BME280;54486;51.442;6.778;2023-01-26T07:04:42;102269.09;;;0.18;100.00
67697;BME280;54486;51.442;6.778;2023-01-26T07:07:08;102259.00;;;0.21;100.00
67697;BME280;54486;51.442;6.778;2023-01-26T07:09:35;102262.00;;;0.29;100.00
67697;BME280;54486;51.442;6.778;2023-01-26T07:12:02;102264.31;;;0.24;100.00
67697;BME280;54486;51.442;6.778;2023-01-26T07:14:30;102272.09;;;0.26;100.00
67697;BME280;54486;51.442;6.778;2023-01-26T07:16:57;102264.50;;;0.27;100.00
67697;BME280;54486;51.442;6.778;2023-01-26T07:19:24;102269.28;;;0.21;100.00
67697;BME280;54486;51.442;6.778;2023-01-26T07:21:50;102257.84;;;0.16;100.00
67697;BME280;54486;51.442;6.778;2023-01-26T07:24:18;102263.78;;;0.15;100.00
67697;BME280;54486;51.442;6.778;2023-01-26T07:26:48;102260.59;;;0.19;100.00
67697;BME280;54486;51.442;6.778;2023-01-26T07:29:15;102262.19;;;0.17;100.00
67697;BME280;54486;51.442;6.778;2023-01-26T07:31:42;102261.31;;;0.17;100.00
67697;BME280;54486;51.442;6.778;2023-01-26T07:34:10;102267.16;;;0.14;100.00
67697;BME280;54486;51.442;6.778;2023-01-26T07:36:38;102270.06;;;0.20;100.00
67697;BME280;54486;51.442;6.778;2023-01-26T07:39:05;102270.16;;;0.22;100.00
67697;BME280;54486;51.442;6.778;2023-01-26T07:41:34;102272.63;;;0.20;100.00
67697;BME280;54486;51.442;6.778;2023-01-26T07:44:01;102269.81;;;0.30;100.00
67697;BME280;54486;51.442;6.778;2023-01-26T07:46:30;102273.53;;;0.21;100.00
67697;BME280;54486;51.442;6.778;2023-01-26T07:48:58;102260.97;;;0.25;100.00
67697;BME280;54486;51.442;6.778;2023-01-26T07:51:25;102274.94;;;0.30;100.00
67697;BME280;54486;51.442;6.778;2023-01-26T07:53:53;102263.25;;;0.35;100.00
67697;BME280;54486;51.442;6.778;2023-01-26T07:56:20;102263.25;;;0.35;100.00
67697;BME280;54486;51.442;6.778;2023-01-26T07:58:53;102264.31;;;0.39;100.00
67697;BME280;54486;51.442;6.778;2023-01-26T08:01:20;102269.09;;;0.47;100.00
67697;BME280;54486;51.442;6.778;2023-01-26T08:03:50;102269.63;;;0.57;100.00
67697;BME280;54486;51.442;6.778;2023-01-26T08:06:19;102272.00;;;0.53;100.00
67697;BME280;54486;51.442;6.778;2023-01-26T08:08:46;102279.53;;;0.50;100.00
67697;BME280;54486;51.442;6.778;2023-01-26T08:11:17;102272.97;;;0.56;100.00
67697;BME280;54486;51.442;6.778;2023-01-26T08:13:49;102273.31;;;0.62;100.00
67697;BME280;54486;51.442;6.778;2023-01-26T08:16:16;102285.03;;;0.57;100.00
67697;BME280;54486;51.442;6.778;2023-01-26T08:18:44;102288.38;;;0.56;100.00
67697;BME280;54486;51.442;6.778;2023-01-26T08:21:13;102285.00;;;0.42;100.00
67697;BME280;54486;51.442;6.778;2023-01-26T08:23:40;102292.47;;;0.37;100.00
67697;BME280;54486;51.442;6.778;2023-01-26T08:26:08;102283.94;;;0.38;100.00
67697;BME280;54486;51.442;6.778;2023-01-26T08:28:36;102294.59;;;0.44;100.00
67697;BME280;54486;51.442;6.778;2023-01-26T08:31:08;102296.53;;;0.48;100.00
67697;BME280;54486;51.442;6.778;2023-01-26T08:33:37;102285.13;;;0.43;100.00
67697;BME280;54486;51.442;6.778;2023-01-26T08:36:05;102290.88;;;0.39;100.00
67697;BME280;54486;51.442;6.778;2023-01-26T08:38:34;102292.81;;;0.43;100.00
67697;BME280;54486;51.442;6.778;2023-01-26T08:41:01;102289.47;;;0.44;100.00
67697;BME280;54486;51.442;6.778;2023-01-26T08:43:28;102286.44;;;0.51;100.00
67697;BME280;54486;51.442;6.778;2023-01-26T08:45:55;102300.25;;;0.53;100.00
67697;BME280;54486;51.442;6.778;2023-01-26T08:48:22;102288.50;;;0.57;100.00
67697;BME280;54486;51.442;6.778;2023-01-26T08:50:53;102289.72;;;0.64;100.00
67697;BME280;54486;51.442;6.778;2023-01-26T08:53:20;102285.09;;;0.58;100.00
67697;BME280;54486;51.442;6.778;2023-01-26T08:55:47;102292.28;;;0.64;100.00
67697;BME280;54486;51.442;6.778;2023-01-26T08:58:15;102295.72;;;0.64;100.00
67697;BME280;54486;51.442;6.778;2023-01-26T09:00:42;102298.81;;;0.59;100.00
67697;BME280;54486;51.442;6.778;2023-01-26T09:03:09;102297.88;;;0.57;100.00
67697;BME280;54486;51.442;6.778;2023-01-26T09:05:36;102298.81;;;0.59;100.00
67697;BME280;54486;51.442;6.778;2023-01-26T09:08:04;102302.84;;;0.53;100.00
67697;BME280;54486;51.442;6.778;2023-01-26T09:10:31;102305.41;;;0.53;100.00
67697;BME280;54486;51.442;6.778;2023-01-26T09:12:58;102303.63;;;0.52;100.00
67697;BME280;54486;51.442;6.778;2023-01-26T09:15:26;102312.09;;;0.51;100.00
67697;BME280;54486;51.442;6.778;2023-01-26T09:17:53;102311.88;;;0.47;100.00
67697;BME280;54486;51.442;6.778;2023-01-26T09:20:20;102315.50;;;0.50;100.00
67697;BME280;54486;51.442;6.778;2023-01-26T09:22:47;102307.31;;;0.58;100.00
67697;BME280;54486;51.442;6.778;2023-01-26T09:25:14;102306.19;;;0.52;100.00
67697;BME280;54486;51.442;6.778;2023-01-26T09:27:41;102308.13;;;0.57;100.00
67697;BME280;54486;51.442;6.778;2023-01-26T09:30:09;102308.84;;;0.69;100.00
67697;BME280;54486;51.442;6.778;2023-01-26T09:32:36;102299.84;;;0.77;100.00
67697;BME280;54486;51.442;6.778;2023-01-26T09:35:04;102304.03;;;0.75;100.00
67697;BME280;54486;51.442;6.778;2023-01-26T09:37:31;102310.25;;;0.78;100.00
67697;BME280;54486;51.442;6.778;2023-01-26T09:39:58;102308.72;;;0.82;100.00
67697;BME280;54486;51.442;6.778;2023-01-26T09:42:36;102308.19;;;0.87;100.00
67697;BME280;54486;51.442;6.778;2023-01-26T09:50:12;102317.56;;;1.01;100.00
67697;BME280;54486;51.442;6.778;2023-01-26T09:53:03;102311.53;;;1.01;100.00
67697;BME280;54486;51.442;6.778;2023-01-26T09:55:29;102311.38;;;0.98;100.00
67697;BME280;54486;51.442;6.778;2023-01-26T09:57:59;102317.75;;;0.90;100.00
67697;BME280;54486;51.442;6.778;2023-01-26T10:00:35;102310.19;;;0.93;100.00
67697;BME280;54486;51.442;6.778;2023-01-26T10:03:14;102313.66;;;0.93;100.00
67697;BME280;54486;51.442;6.778;2023-01-26T10:08:48;102302.50;;;0.93;100.00
67697;BME280;54486;51.442;6.778;2023-01-26T10:11:17;102311.25;;;0.96;100.00
67697;BME280;54486;51.442;6.778;2023-01-26T10:13:49;102318.25;;;0.99;100.00
67697;BME280;54486;51.442;6.778;2023-01-26T10:16:17;102310.63;;;1.00;100.00
67697;BME280;54486;51.442;6.778;2023-01-26T10:18:50;102304.78;;;1.03;100.00
67697;BME280;54486;51.442;6.778;2023-01-26T10:21:19;102297.88;;;1.02;100.00
67697;BME280;54486;51.442;6.778;2023-01-26T10:23:48;102299.81;;;1.06;100.00
67697;BME280;54486;51.442;6.778;2023-01-26T10:26:22;102287.38;;;1.14;100.00
67697;BME280;54486;51.442;6.778;2023-01-26T10:28:50;102291.25;;;1.22;100.00
67697;BME280;54486;51.442;6.778;2023-01-26T10:31:22;102295.16;;;1.15;100.00
67697;BME280;54486;51.442;6.778;2023-01-26T10:33:54;102292.13;;;1.22;100.00
67697;BME280;54486;51.442;6.778;2023-01-26T10:36:22;102286.81;;;1.19;100.00
67697;BME280;54486;51.442;6.778;2023-01-26T10:38:49;102288.66;;;1.22;100.00
67697;BME280;54486;51.442;6.778;2023-01-26T10:41:26;102288.28;;;1.14;100.00
67697;BME280;54486;51.442;6.778;2023-01-26T10:43:55;102287.63;;;1.18;100.00
67697;BME280;54486;51.442;6.778;2023-01-26T10:48:50;102279.28;;;1.22;100.00
67697;BME280;54486;51.442;6.778;2023-01-26T10:51:21;102281.84;;;1.22;100.00
67697;BME280;54486;51.442;6.778;2023-01-26T10:53:48;102285.03;;;1.18;100.00
67697;BME280;54486;51.442;6.778;2023-01-26T10:56:15;102276.53;;;1.19;100.00
67697;BME280;54486;51.442;6.778;2023-01-26T11:01:09;102277.66;;;1.08;100.00
67697;BME280;54486;51.442;6.778;2023-01-26T11:03:42;102271.69;;;1.09;100.00
67697;BME280;54486;51.442;6.778;2023-01-26T11:06:26;102272.69;;;1.11;100.00
67697;BME280;54486;51.442;6.778;2023-01-26T11:08:53;102272.13;;;1.17;100.00
67697;BME280;54486;51.442;6.778;2023-01-26T11:11:33;102266.44;;;1.22;100.00
67697;BME280;54486;51.442;6.778;2023-01-26T11:14:10;102267.88;;;1.17;100.00
67697;BME280;54486;51.442;6.778;2023-01-26T11:16:39;102280.97;;;1.22;100.00
67697;BME280;54486;51.442;6.778;2023-01-26T11:19:13;102274.44;;;1.12;100.00
67697;BME280;54486;51.442;6.778;2023-01-26T11:21:47;102269.81;;;1.21;100.00
67697;BME280;54486;51.442;6.778;2023-01-26T11:24:33;102270.19;;;1.13;100.00
67697;BME280;54486;51.442;6.778;2023-01-26T11:29:45;102267.31;;;1.23;100.00
67697;BME280;54486;51.442;6.778;2023-01-26T11:34:59;102270.31;;;1.30;100.00
67697;BME280;54486;51.442;6.778;2023-01-26T11:37:34;102270.31;;;1.30;100.00
67697;BME280;54486;51.442;6.778;2023-01-26T11:42:39;102275.28;;;1.27;100.00
67697;BME280;54486;51.442;6.778;2023-01-26T11:48:01;102260.91;;;1.31;100.00
67697;BME280;54486;51.442;6.778;2023-01-26T11:53:20;102260.66;;;1.42;100.00
67697;BME280;54486;51.442;6.778;2023-01-26T12:01:03;102240.91;;;1.57;100.00
67697;BME280;54486;51.442;6.778;2023-01-26T12:03:35;102246.34;;;1.64;100.00
67697;BME280;54486;51.442;6.778;2023-01-26T12:06:06;102240.16;;;1.76;100.00
67697;BME280;54486;51.442;6.778;2023-01-26T12:08:35;102234.47;;;1.66;100.00
67697;BME280;54486;51.442;6.778;2023-01-26T12:13:58;102234.63;;;1.69;100.00
67697;BME280;54486;51.442;6.778;2023-01-26T12:22:05;102220.94;;;1.70;100.00
67697;BME280;54486;51.442;6.778;2023-01-26T12:24:57;102224.66;;;1.75;100.00
67697;BME280;54486;51.442;6.778;2023-01-26T12:27:53;102223.97;;;1.79;100.00
67697;BME280;54486;51.442;6.778;2023-01-26T12:30:30;102216.09;;;1.76;100.00
67697;BME280;54486;51.442;6.778;2023-01-26T12:33:00;102205.66;;;1.73;100.00
67697;BME280;54486;51.442;6.778;2023-01-26T12:35:36;102205.34;;;1.67;100.00
67697;BME280;54486;51.442;6.778;2023-01-26T12:38:52;102213.75;;;1.63;100.00
67697;BME280;54486;51.442;6.778;2023-01-26T12:43:30;102197.56;;;1.65;100.00
67697;BME280;54486;51.442;6.778;2023-01-26T12:46:02;102203.81;;;1.70;100.00
67697;BME280;54486;51.442;6.778;2023-01-26T12:48:34;102196.84;;;1.68;100.00
67697;BME280;54486;51.442;6.778;2023-01-26T12:51:11;102190.38;;;1.76;100.00
67697;BME280;54486;51.442;6.778;2023-01-26T12:53:50;102203.03;;;1.71;100.00
67697;BME280;54486;51.442;6.778;2023-01-26T12:56:33;102201.66;;;1.62;100.00
67697;BME280;54486;51.442;6.778;2023-01-26T12:59:12;102195.91;;;1.49;100.00
67697;BME280;54486;51.442;6.778;2023-01-26T13:02:16;102199.72;;;1.57;100.00
67697;BME280;54486;51.442;6.778;2023-01-26T13:04:45;102192.25;;;1.62;100.00
67697;BME280;54486;51.442;6.778;2023-01-26T13:12:47;102190.94;;;1.86;100.00
67697;BME280;54486;51.442;6.778;2023-01-26T13:15:16;102196.16;;;1.88;100.00
67697;BME280;54486;51.442;6.778;2023-01-26T13:20:23;102191.50;;;1.81;100.00
67697;BME280;54486;51.442;6.778;2023-01-26T13:22:51;102189.41;;;1.90;100.00
67697;BME280;54486;51.442;6.778;2023-01-26T13:25:27;102178.44;;;1.94;100.00
67697;BME280;54486;51.442;6.778;2023-01-26T13:27:59;102178.16;;;1.88;100.00
67697;BME280;54486;51.442;6.778;2023-01-26T13:35:40;102170.53;;;2.07;100.00
67697;BME280;54486;51.442;6.778;2023-01-26T13:38:13;102182.97;;;2.16;100.00
67697;BME280;54486;51.442;6.778;2023-01-26T13:40:41;102179.19;;;2.09;100.00
67697;BME280;54486;51.442;6.778;2023-01-26T13:43:12;102180.00;;;2.08;100.00
67697;BME280;54486;51.442;6.778;2023-01-26T13:46:10;102180.78;;;2.23;100.00
67697;BME280;54486;51.442;6.778;2023-01-26T13:51:05;102169.78;;;2.27;100.00
67697;BME280;54486;51.442;6.778;2023-01-26T13:53:35;102175.59;;;2.41;100.00
67697;BME280;54486;51.442;6.778;2023-01-26T13:56:06;102170.75;;;2.47;100.00
67697;BME280;54486;51.442;6.778;2023-01-26T13:58:44;102170.16;;;2.52;100.00
67697;BME280;54486;51.442;6.778;2023-01-26T14:01:12;102162.72;;;2.58;100.00
67697;BME280;54486;51.442;6.778;2023-01-26T14:03:39;102163.16;;;2.67;100.00
67697;BME280;54486;51.442;6.778;2023-01-26T14:06:07;102169.34;;;2.71;100.00
67697;BME280;54486;51.442;6.778;2023-01-26T14:08:36;102166.16;;;2.77;100.00
67697;BME280;54486;51.442;6.778;2023-01-26T14:11:13;102173.38;;;2.84;100.00
67697;BME280;54486;51.442;6.778;2023-01-26T14:13:41;102173.38;;;2.84;100.00